sensor_id;sensor_type;location;lat;lon;timestamp;temperature;humidity
71396;DHT22;59888;55.814;37.132;2023-04-03T00:01:29;11.29;64.19
71396;DHT22;59888;55.814;37.132;2023-04-03T00:03:58;11.29;64.18
71396;DHT22;59888;55.814;37.132;2023-04-03T00:06:25;11.31;64.09
71396;DHT22;59888;55.814;37.132;2023-04-03T00:08:52;11.27;64.01
71396;DHT22;59888;55.814;37.132;2023-04-03T00:11:18;11.20;64.11
71396;DHT22;59888;55.814;37.132;2023-04-03T00:13:45;11.17;64.22
71396;DHT22;59888;55.814;37.132;2023-04-03T00:16:11;11.19;64.24
71396;DHT22;59888;55.814;37.132;2023-04-03T00:18:38;11.19;64.21
71396;DHT22;59888;55.814;37.132;2023-04-03T00:21:05;11.15;64.24
71396;DHT22;59888;55.814;37.132;2023-04-03T00:23:31;11.13;64.35
71396;DHT22;59888;55.814;37.132;2023-04-03T00:25:57;11.14;64.30
71396;DHT22;59888;55.814;37.132;2023-04-03T00:28:23;11.13;64.37
71396;DHT22;59888;55.814;37.132;2023-04-03T00:30:50;11.12;64.40
71396;DHT22;59888;55.814;37.132;2023-04-03T00:33:16;11.13;64.43
71396;DHT22;59888;55.814;37.132;2023-04-03T00:35:42;11.12;64.36
71396;DHT22;59888;55.814;37.132;2023-04-03T00:38:09;11.13;64.43
71396;DHT22;59888;55.814;37.132;2023-04-03T00:40:37;11.14;64.42
71396;DHT22;59888;55.814;37.132;2023-04-03T00:43:17;11.11;64.54
71396;DHT22;59888;55.814;37.132;2023-04-03T00:45:46;11.10;64.59
71396;DHT22;59888;55.814;37.132;2023-04-03T00:48:20;11.13;64.63
71396;DHT22;59888;55.814;37.132;2023-04-03T00:50:47;11.16;64.47
71396;DHT22;59888;55.814;37.132;2023-04-03T00:53:19;11.18;64.49
71396;DHT22;59888;55.814;37.132;2023-04-03T00:55:48;11.20;64.45
71396;DHT22;59888;55.814;37.132;2023-04-03T00:58:16;11.17;64.39
71396;DHT22;59888;55.814;37.132;2023-04-03T01:00:47;11.14;64.48
71396;DHT22;59888;55.814;37.132;2023-04-03T01:03:14;11.05;64.55
71396;DHT22;59888;55.814;37.132;2023-04-03T01:05:40;11.04;64.66
71396;DHT22;59888;55.814;37.132;2023-04-03T01:08:06;11.05;64.65
71396;DHT22;59888;55.814;37.132;2023-04-03T01:10:33;11.05;64.72
71396;DHT22;59888;55.814;37.132;2023-04-03T01:12:59;11.13;64.69
71396;DHT22;59888;55.814;37.132;2023-04-03T01:15:27;11.17;64.50
71396;DHT22;59888;55.814;37.132;2023-04-03T01:17:58;11.14;64.50
71396;DHT22;59888;55.814;37.132;2023-04-03T01:25:38;11.14;64.58
71396;DHT22;59888;55.814;37.132;2023-04-03T01:28:07;11.14;64.56
71396;DHT22;59888;55.814;37.132;2023-04-03T01:30:39;11.11;64.66
71396;DHT22;59888;55.814;37.132;2023-04-03T01:33:08;11.10;64.72
71396;DHT22;59888;55.814;37.132;2023-04-03T01:35:35;11.11;64.69
71396;DHT22;59888;55.814;37.132;2023-04-03T01:38:00;11.07;64.80
71396;DHT22;59888;55.814;37.132;2023-04-03T01:40:26;11.05;64.85
71396;DHT22;59888;55.814;37.132;2023-04-03T01:42:53;11.12;64.84
71396;DHT22;59888;55.814;37.132;2023-04-03T01:45:18;11.19;64.72
71396;DHT22;59888;55.814;37.132;2023-04-03T01:47:44;11.22;64.60
71396;DHT22;59888;55.814;37.132;2023-04-03T01:50:10;11.22;64.56
71396;DHT22;59888;55.814;37.132;2023-04-03T01:52:36;11.24;64.50
71396;DHT22;59888;55.814;37.132;2023-04-03T01:55:02;11.26;64.44
71396;DHT22;59888;55.814;37.132;2023-04-03T01:57:29;11.26;64.35
71396;DHT22;59888;55.814;37.132;2023-04-03T01:59:54;11.15;64.43
71396;DHT22;59888;55.814;37.132;2023-04-03T02:02:20;11.10;64.63
71396;DHT22;59888;55.814;37.132;2023-04-03T02:04:46;11.13;64.66
71396;DHT22;59888;55.814;37.132;2023-04-03T02:07:15;11.11;64.69
71396;DHT22;59888;55.814;37.132;2023-04-03T02:09:41;11.09;64.63
71396;DHT22;59888;55.814;37.132;2023-04-03T02:12:08;11.08;64.77
71396;DHT22;59888;55.814;37.132;2023-04-03T02:14:34;11.11;64.78
71396;DHT22;59888;55.814;37.132;2023-04-03T02:17:01;11.15;64.72
71396;DHT22;59888;55.814;37.132;2023-04-03T02:19:31;11.18;64.56
71396;DHT22;59888;55.814;37.132;2023-04-03T02:21:57;11.14;64.55
71396;DHT22;59888;55.814;37.132;2023-04-03T02:24:23;11.14;64.58
71396;DHT22;59888;55.814;37.132;2023-04-03T02:26:48;11.13;64.57
71396;DHT22;59888;55.814;37.132;2023-04-03T02:29:14;11.13;64.50
71396;DHT22;59888;55.814;37.132;2023-04-03T02:31:40;11.12;64.50
71396;DHT22;59888;55.814;37.132;2023-04-03T02:34:06;11.09;64.47
71396;DHT22;59888;55.814;37.132;2023-04-03T02:36:34;11.02;64.54
71396;DHT22;59888;55.814;37.132;2023-04-03T02:39:04;10.98;64.63
71396;DHT22;59888;55.814;37.132;2023-04-03T02:41:31;10.95;64.68
71396;DHT22;59888;55.814;37.132;2023-04-03T02:44:10;10.94;64.71
71396;DHT22;59888;55.814;37.132;2023-04-03T02:46:36;10.93;64.68
71396;DHT22;59888;55.814;37.132;2023-04-03T02:49:03;10.90;64.67
71396;DHT22;59888;55.814;37.132;2023-04-03T02:51:29;10.90;64.62
71396;DHT22;59888;55.814;37.132;2023-04-03T02:53:56;10.92;64.64
71396;DHT22;59888;55.814;37.132;2023-04-03T02:56:26;10.93;64.63
71396;DHT22;59888;55.814;37.132;2023-04-03T02:58:52;10.87;64.61
71396;DHT22;59888;55.814;37.132;2023-04-03T03:01:19;10.83;64.64
71396;DHT22;59888;55.814;37.132;2023-04-03T03:03:45;10.79;64.66
71396;DHT22;59888;55.814;37.132;2023-04-03T03:06:13;10.80;64.73
71396;DHT22;59888;55.814;37.132;2023-04-03T03:08:40;10.81;64.69
71396;DHT22;59888;55.814;37.132;2023-04-03T03:11:07;10.78;64.62
71396;DHT22;59888;55.814;37.132;2023-04-03T03:13:33;10.74;64.72
71396;DHT22;59888;55.814;37.132;2023-04-03T03:15:59;10.69;64.79
71396;DHT22;59888;55.814;37.132;2023-04-03T03:18:25;10.64;64.97
71396;DHT22;59888;55.814;37.132;2023-04-03T03:20:53;10.63;65.02
71396;DHT22;59888;55.814;37.132;2023-04-03T03:23:21;10.65;65.04
71396;DHT22;59888;55.814;37.132;2023-04-03T03:25:47;10.67;65.02
71396;DHT22;59888;55.814;37.132;2023-04-03T03:28:13;10.65;65.02
71396;DHT22;59888;55.814;37.132;2023-04-03T03:30:39;10.66;64.95
71396;DHT22;59888;55.814;37.132;2023-04-03T03:33:05;10.66;65.03
71396;DHT22;59888;55.814;37.132;2023-04-03T03:35:31;10.64;64.95
71396;DHT22;59888;55.814;37.132;2023-04-03T03:37:57;10.60;65.01
71396;DHT22;59888;55.814;37.132;2023-04-03T03:40:23;10.57;65.12
71396;DHT22;59888;55.814;37.132;2023-04-03T03:42:49;10.62;65.11
71396;DHT22;59888;55.814;37.132;2023-04-03T03:45:15;10.69;65.02
71396;DHT22;59888;55.814;37.132;2023-04-03T03:47:41;10.81;64.85
71396;DHT22;59888;55.814;37.132;2023-04-03T03:50:08;10.93;64.64
71396;DHT22;59888;55.814;37.132;2023-04-03T03:52:34;10.95;64.53
71396;DHT22;59888;55.814;37.132;2023-04-03T03:55:00;10.99;64.47
71396;DHT22;59888;55.814;37.132;2023-04-03T03:57:26;11.05;64.44
71396;DHT22;59888;55.814;37.132;2023-04-03T03:59:54;11.09;64.40
71396;DHT22;59888;55.814;37.132;2023-04-03T04:02:20;11.16;64.30
71396;DHT22;59888;55.814;37.132;2023-04-03T04:04:47;11.23;64.11
71396;DHT22;59888;55.814;37.132;2023-04-03T04:07:14;11.28;63.94
71396;DHT22;59888;55.814;37.132;2023-04-03T04:09:40;11.37;63.73
71396;DHT22;59888;55.814;37.132;2023-04-03T04:12:07;11.41;63.66
71396;DHT22;59888;55.814;37.132;2023-04-03T04:14:35;11.38;63.65
71396;DHT22;59888;55.814;37.132;2023-04-03T04:17:01;11.33;63.78
71396;DHT22;59888;55.814;37.132;2023-04-03T04:19:28;11.28;63.84
71396;DHT22;59888;55.814;37.132;2023-04-03T04:21:54;11.29;63.92
71396;DHT22;59888;55.814;37.132;2023-04-03T04:24:20;11.28;63.89
71396;DHT22;59888;55.814;37.132;2023-04-03T04:26:50;11.33;63.82
71396;DHT22;59888;55.814;37.132;2023-04-03T04:29:16;11.40;63.74
71396;DHT22;59888;55.814;37.132;2023-04-03T04:31:46;11.45;63.64
71396;DHT22;59888;55.814;37.132;2023-04-03T04:34:11;11.53;63.46
71396;DHT22;59888;55.814;37.132;2023-04-03T04:36:39;11.61;63.34
71396;DHT22;59888;55.814;37.132;2023-04-03T04:39:05;11.68;63.13
71396;DHT22;59888;55.814;37.132;2023-04-03T04:41:31;11.69;63.16
71396;DHT22;59888;55.814;37.132;2023-04-03T04:43:58;11.75;63.09
71396;DHT22;59888;55.814;37.132;2023-04-03T04:46:26;11.78;63.17
71396;DHT22;59888;55.814;37.132;2023-04-03T04:48:56;11.84;63.11
71396;DHT22;59888;55.814;37.132;2023-04-03T04:51:25;11.91;63.04
71396;DHT22;59888;55.814;37.132;2023-04-03T04:53:51;12.00;62.92
71396;DHT22;59888;55.814;37.132;2023-04-03T04:56:18;12.08;62.77
71396;DHT22;59888;55.814;37.132;2023-04-03T04:58:45;12.18;62.57
71396;DHT22;59888;55.814;37.132;2023-04-03T05:01:11;12.29;62.39
71396;DHT22;59888;55.814;37.132;2023-04-03T05:03:51;12.34;62.19
71396;DHT22;59888;55.814;37.132;2023-04-03T05:06:18;12.40;62.10
71396;DHT22;59888;55.814;37.132;2023-04-03T05:08:45;12.47;62.00
71396;DHT22;59888;55.814;37.132;2023-04-03T05:11:10;12.50;61.93
71396;DHT22;59888;55.814;37.132;2023-04-03T05:13:37;12.55;61.94
71396;DHT22;59888;55.814;37.132;2023-04-03T05:16:04;12.60;61.83
71396;DHT22;59888;55.814;37.132;2023-04-03T05:18:31;12.65;61.68
71396;DHT22;59888;55.814;37.132;2023-04-03T05:21:00;12.70;61.52
71396;DHT22;59888;55.814;37.132;2023-04-03T05:23:26;12.76;61.38
71396;DHT22;59888;55.814;37.132;2023-04-03T05:25:53;12.82;61.35
71396;DHT22;59888;55.814;37.132;2023-04-03T05:28:19;12.88;61.21
71396;DHT22;59888;55.814;37.132;2023-04-03T05:30:45;12.82;61.07
71396;DHT22;59888;55.814;37.132;2023-04-03T05:33:11;12.89;61.16
71396;DHT22;59888;55.814;37.132;2023-04-03T05:35:45;12.94;60.86
71396;DHT22;59888;55.814;37.132;2023-04-03T05:38:16;12.97;61.00
71396;DHT22;59888;55.814;37.132;2023-04-03T05:40:43;13.08;60.89
71396;DHT22;59888;55.814;37.132;2023-04-03T05:43:09;13.19;60.65
71396;DHT22;59888;55.814;37.132;2023-04-03T05:45:38;13.22;60.42
71396;DHT22;59888;55.814;37.132;2023-04-03T05:48:04;13.26;60.34
71396;DHT22;59888;55.814;37.132;2023-04-03T05:50:30;13.37;60.15
71396;DHT22;59888;55.814;37.132;2023-04-03T05:52:57;13.40;59.86
71396;DHT22;59888;55.814;37.132;2023-04-03T05:55:26;13.49;59.77
71396;DHT22;59888;55.814;37.132;2023-04-03T05:57:53;13.56;59.66
71396;DHT22;59888;55.814;37.132;2023-04-03T06:00:20;13.67;59.44
71396;DHT22;59888;55.814;37.132;2023-04-03T06:02:56;13.70;59.30
71396;DHT22;59888;55.814;37.132;2023-04-03T06:05:24;13.71;59.19
71396;DHT22;59888;55.814;37.132;2023-04-03T06:07:50;13.74;59.00
71396;DHT22;59888;55.814;37.132;2023-04-03T06:10:16;13.83;58.94
71396;DHT22;59888;55.814;37.132;2023-04-03T06:12:44;13.80;58.75
71396;DHT22;59888;55.814;37.132;2023-04-03T06:15:10;13.74;58.74
71396;DHT22;59888;55.814;37.132;2023-04-03T06:17:39;13.69;58.78
71396;DHT22;59888;55.814;37.132;2023-04-03T06:20:07;13.68;58.62
71396;DHT22;59888;55.814;37.132;2023-04-03T06:22:33;13.81;58.64
71396;DHT22;59888;55.814;37.132;2023-04-03T06:25:00;13.81;58.38
71396;DHT22;59888;55.814;37.132;2023-04-03T06:27:28;13.76;58.32
71396;DHT22;59888;55.814;37.132;2023-04-03T06:29:54;13.68;58.61
71396;DHT22;59888;55.814;37.132;2023-04-03T06:32:20;13.67;58.46
71396;DHT22;59888;55.814;37.132;2023-04-03T06:34:45;13.73;58.59
71396;DHT22;59888;55.814;37.132;2023-04-03T06:37:20;13.77;58.22
71396;DHT22;59888;55.814;37.132;2023-04-03T06:39:46;13.68;57.98
71396;DHT22;59888;55.814;37.132;2023-04-03T06:42:12;13.67;57.97
71396;DHT22;59888;55.814;37.132;2023-04-03T06:44:47;13.64;58.01
71396;DHT22;59888;55.814;37.132;2023-04-03T06:47:14;13.74;58.07
71396;DHT22;59888;55.814;37.132;2023-04-03T06:49:40;13.83;57.70
71396;DHT22;59888;55.814;37.132;2023-04-03T06:52:07;13.94;57.66
71396;DHT22;59888;55.814;37.132;2023-04-03T06:54:33;14.04;57.35
71396;DHT22;59888;55.814;37.132;2023-04-03T06:56:59;14.12;57.20
71396;DHT22;59888;55.814;37.132;2023-04-03T06:59:25;14.25;56.89
71396;DHT22;59888;55.814;37.132;2023-04-03T07:01:51;14.30;56.71
71396;DHT22;59888;55.814;37.132;2023-04-03T07:04:17;14.26;56.84
71396;DHT22;59888;55.814;37.132;2023-04-03T07:06:46;14.32;56.83
71396;DHT22;59888;55.814;37.132;2023-04-03T07:09:15;14.35;56.64
71396;DHT22;59888;55.814;37.132;2023-04-03T07:11:41;14.34;56.65
71396;DHT22;59888;55.814;37.132;2023-04-03T07:14:07;14.37;56.81
71396;DHT22;59888;55.814;37.132;2023-04-03T07:16:34;14.43;56.71
71396;DHT22;59888;55.814;37.132;2023-04-03T07:19:00;14.47;56.65
71396;DHT22;59888;55.814;37.132;2023-04-03T07:21:27;14.41;56.57
71396;DHT22;59888;55.814;37.132;2023-04-03T07:23:54;14.47;56.66
71396;DHT22;59888;55.814;37.132;2023-04-03T07:26:20;14.40;56.43
71396;DHT22;59888;55.814;37.132;2023-04-03T07:28:47;14.42;56.34
71396;DHT22;59888;55.814;37.132;2023-04-03T07:31:14;14.41;56.41
71396;DHT22;59888;55.814;37.132;2023-04-03T07:33:41;14.41;56.42
71396;DHT22;59888;55.814;37.132;2023-04-03T07:36:08;14.41;56.16
71396;DHT22;59888;55.814;37.132;2023-04-03T07:38:35;14.38;56.02
71396;DHT22;59888;55.814;37.132;2023-04-03T07:41:02;14.39;55.94
71396;DHT22;59888;55.814;37.132;2023-04-03T07:43:28;14.45;55.82
71396;DHT22;59888;55.814;37.132;2023-04-03T07:45:53;14.45;55.85
71396;DHT22;59888;55.814;37.132;2023-04-03T07:48:24;14.58;55.77
71396;DHT22;59888;55.814;37.132;2023-04-03T07:50:50;14.53;55.45
71396;DHT22;59888;55.814;37.132;2023-04-03T07:53:17;14.55;54.71
71396;DHT22;59888;55.814;37.132;2023-04-03T07:55:46;14.57;54.97
71396;DHT22;59888;55.814;37.132;2023-04-03T07:58:16;14.69;55.06
71396;DHT22;59888;55.814;37.132;2023-04-03T08:00:42;14.86;54.65
71396;DHT22;59888;55.814;37.132;2023-04-03T08:03:10;14.99;54.38
71396;DHT22;59888;55.814;37.132;2023-04-03T08:05:40;15.22;54.22
71396;DHT22;59888;55.814;37.132;2023-04-03T08:08:07;15.51;54.08
71396;DHT22;59888;55.814;37.132;2023-04-03T08:10:33;15.68;53.50
71396;DHT22;59888;55.814;37.132;2023-04-03T08:13:00;15.84;52.92
71396;DHT22;59888;55.814;37.132;2023-04-03T08:15:26;15.99;52.50
71396;DHT22;59888;55.814;37.132;2023-04-03T08:17:53;16.17;52.43
71396;DHT22;59888;55.814;37.132;2023-04-03T08:20:19;16.37;52.20
71396;DHT22;59888;55.814;37.132;2023-04-03T08:22:45;16.66;51.62
71396;DHT22;59888;55.814;37.132;2023-04-03T08:25:12;16.86;51.56
71396;DHT22;59888;55.814;37.132;2023-04-03T08:27:37;17.01;51.30
71396;DHT22;59888;55.814;37.132;2023-04-03T08:30:04;17.14;50.92
71396;DHT22;59888;55.814;37.132;2023-04-03T08:32:30;17.18;50.65
71396;DHT22;59888;55.814;37.132;2023-04-03T08:34:56;17.24;49.56
71396;DHT22;59888;55.814;37.132;2023-04-03T08:37:21;17.15;49.37
71396;DHT22;59888;55.814;37.132;2023-04-03T08:39:47;17.14;49.88
71396;DHT22;59888;55.814;37.132;2023-04-03T08:42:39;17.20;48.52
71396;DHT22;59888;55.814;37.132;2023-04-03T08:45:15;17.18;49.65
71396;DHT22;59888;55.814;37.132;2023-04-03T08:50:31;17.26;49.73
71396;DHT22;59888;55.814;37.132;2023-04-03T08:53:01;17.22;48.86
71396;DHT22;59888;55.814;37.132;2023-04-03T08:55:37;17.17;48.97
71396;DHT22;59888;55.814;37.132;2023-04-03T08:58:50;17.21;49.06
71396;DHT22;59888;55.814;37.132;2023-04-03T09:01:03;17.32;48.92
71396;DHT22;59888;55.814;37.132;2023-04-03T09:03:33;17.32;48.50
71396;DHT22;59888;55.814;37.132;2023-04-03T09:06:01;17.29;48.93
71396;DHT22;59888;55.814;37.132;2023-04-03T09:11:06;17.43;48.69
71396;DHT22;59888;55.814;37.132;2023-04-03T09:16:21;17.30;47.95
71396;DHT22;59888;55.814;37.132;2023-04-03T09:18:57;17.29;46.99
71396;DHT22;59888;55.814;37.132;2023-04-03T09:21:34;17.30;48.07
71396;DHT22;59888;55.814;37.132;2023-04-03T09:24:04;17.33;47.51
71396;DHT22;59888;55.814;37.132;2023-04-03T09:29:14;17.30;47.95
71396;DHT22;59888;55.814;37.132;2023-04-03T09:31:43;17.31;48.25
71396;DHT22;59888;55.814;37.132;2023-04-03T09:34:37;17.41;47.02
71396;DHT22;59888;55.814;37.132;2023-04-03T09:37:04;17.35;48.40
71396;DHT22;59888;55.814;37.132;2023-04-03T09:39:52;17.26;47.26
71396;DHT22;59888;55.814;37.132;2023-04-03T09:42:21;17.18;47.83
71396;DHT22;59888;55.814;37.132;2023-04-03T09:44:59;17.23;47.44
71396;DHT22;59888;55.814;37.132;2023-04-03T09:47:35;17.26;48.18
71396;DHT22;59888;55.814;37.132;2023-04-03T09:50:28;17.37;47.20
71396;DHT22;59888;55.814;37.132;2023-04-03T09:52:55;17.40;47.93
71396;DHT22;59888;55.814;37.132;2023-04-03T09:55:26;17.39;47.38
71396;DHT22;59888;55.814;37.132;2023-04-03T09:58:00;17.38;47.14
71396;DHT22;59888;55.814;37.132;2023-04-03T10:00:37;17.49;46.89
71396;DHT22;59888;55.814;37.132;2023-04-03T10:03:04;17.53;47.37
71396;DHT22;59888;55.814;37.132;2023-04-03T10:05:34;17.58;47.18
71396;DHT22;59888;55.814;37.132;2023-04-03T10:10:40;17.61;47.21
71396;DHT22;59888;55.814;37.132;2023-04-03T10:13:10;17.61;46.92
71396;DHT22;59888;55.814;37.132;2023-04-03T10:15:43;17.54;45.98
71396;DHT22;59888;55.814;37.132;2023-04-03T10:26:56;17.58;46.18
71396;DHT22;59888;55.814;37.132;2023-04-03T10:34:43;17.66;46.19
71396;DHT22;59888;55.814;37.132;2023-04-03T10:40:13;17.68;45.96
71396;DHT22;59888;55.814;37.132;2023-04-03T10:58:58;17.69;44.33
71396;DHT22;59888;55.814;37.132;2023-04-03T11:01:32;17.70;45.30
71396;DHT22;59888;55.814;37.132;2023-04-03T11:04:00;17.79;45.26
71396;DHT22;59888;55.814;37.132;2023-04-03T11:06:47;17.81;44.45
71396;DHT22;59888;55.814;37.132;2023-04-03T11:11:55;17.95;44.56
71396;DHT22;59888;55.814;37.132;2023-04-03T11:14:34;17.99;43.75
71396;DHT22;59888;55.814;37.132;2023-04-03T11:19:45;18.12;44.77
71396;DHT22;59888;55.814;37.132;2023-04-03T11:22:23;18.24;44.00
71396;DHT22;59888;55.814;37.132;2023-04-03T11:36:26;18.52;42.42
71396;DHT22;59888;55.814;37.132;2023-04-03T11:38:56;18.54;42.68
71396;DHT22;59888;55.814;37.132;2023-04-03T11:41:31;18.63;41.86
71396;DHT22;59888;55.814;37.132;2023-04-03T11:43:59;18.67;41.57
71396;DHT22;59888;55.814;37.132;2023-04-03T11:46:57;18.72;41.81
71396;DHT22;59888;55.814;37.132;2023-04-03T12:19:13;18.03;41.38
71396;DHT22;59888;55.814;37.132;2023-04-03T12:24:35;17.95;41.42
71396;DHT22;59888;55.814;37.132;2023-04-03T12:27:24;17.89;41.28
71396;DHT22;59888;55.814;37.132;2023-04-03T12:35:44;17.73;40.98
71396;DHT22;59888;55.814;37.132;2023-04-03T12:44:26;17.51;40.63
71396;DHT22;59888;55.814;37.132;2023-04-03T12:46:53;17.37;41.08
71396;DHT22;59888;55.814;37.132;2023-04-03T12:49:41;17.32;40.23
71396;DHT22;59888;55.814;37.132;2023-04-03T12:53:11;17.25;40.20
71396;DHT22;59888;55.814;37.132;2023-04-03T12:55:32;17.17;41.48
71396;DHT22;59888;55.814;37.132;2023-04-03T12:58:24;17.13;40.26
71396;DHT22;59888;55.814;37.132;2023-04-03T13:01:00;17.07;40.94
71396;DHT22;59888;55.814;37.132;2023-04-03T13:03:27;17.02;41.19
71396;DHT22;59888;55.814;37.132;2023-04-03T13:06:02;16.91;40.64
71396;DHT22;59888;55.814;37.132;2023-04-03T13:08:29;16.85;41.24
71396;DHT22;59888;55.814;37.132;2023-04-03T13:11:10;16.80;40.56
71396;DHT22;59888;55.814;37.132;2023-04-03T13:13:37;16.77;41.94
71396;DHT22;59888;55.814;37.132;2023-04-03T13:16:10;16.72;41.54
71396;DHT22;59888;55.814;37.132;2023-04-03T13:18:37;16.67;42.42
71396;DHT22;59888;55.814;37.132;2023-04-03T13:21:28;16.67;41.73
71396;DHT22;59888;55.814;37.132;2023-04-03T13:23:58;16.65;42.12
71396;DHT22;59888;55.814;37.132;2023-04-03T13:26:28;16.59;42.42
71396;DHT22;59888;55.814;37.132;2023-04-03T13:28:59;16.52;42.62
71396;DHT22;59888;55.814;37.132;2023-04-03T13:31:30;16.46;42.88
71396;DHT22;59888;55.814;37.132;2023-04-03T13:33:58;16.47;43.00
71396;DHT22;59888;55.814;37.132;2023-04-03T13:36:35;16.46;42.37
71396;DHT22;59888;55.814;37.132;2023-04-03T13:41:41;16.40;43.17
71396;DHT22;59888;55.814;37.132;2023-04-03T13:46:43;16.41;43.48
71396;DHT22;59888;55.814;37.132;2023-04-03T13:49:21;16.35;43.26
71396;DHT22;59888;55.814;37.132;2023-04-03T13:51:48;16.36;43.76
71396;DHT22;59888;55.814;37.132;2023-04-03T13:54:39;16.30;43.27
71396;DHT22;59888;55.814;37.132;2023-04-03T13:57:14;16.27;44.04
71396;DHT22;59888;55.814;37.132;2023-04-03T13:59:41;16.33;44.29
71396;DHT22;59888;55.814;37.132;2023-04-03T14:05:08;16.21;44.41
71396;DHT22;59888;55.814;37.132;2023-04-03T14:07:34;16.15;44.64
71396;DHT22;59888;55.814;37.132;2023-04-03T14:10:00;16.10;44.67
71396;DHT22;59888;55.814;37.132;2023-04-03T14:12:31;15.95;44.74
71396;DHT22;59888;55.814;37.132;2023-04-03T14:15:00;15.88;45.17
71396;DHT22;59888;55.814;37.132;2023-04-03T14:17:27;15.85;45.45
71396;DHT22;59888;55.814;37.132;2023-04-03T14:19:55;15.80;45.61
71396;DHT22;59888;55.814;37.132;2023-04-03T14:22:23;15.80;45.89
71396;DHT22;59888;55.814;37.132;2023-04-03T14:24:50;15.78;46.12
71396;DHT22;59888;55.814;37.132;2023-04-03T14:29:42;15.67;46.50
71396;DHT22;59888;55.814;37.132;2023-04-03T14:32:11;15.56;46.25
71396;DHT22;59888;55.814;37.132;2023-04-03T14:34:38;15.51;46.63
71396;DHT22;59888;55.814;37.132;2023-04-03T14:37:10;15.48;46.93
71396;DHT22;59888;55.814;37.132;2023-04-03T14:39:36;15.49;47.02
71396;DHT22;59888;55.814;37.132;2023-04-03T14:42:02;15.46;47.18
71396;DHT22;59888;55.814;37.132;2023-04-03T14:44:28;15.48;47.25
71396;DHT22;59888;55.814;37.132;2023-04-03T14:46:55;15.45;47.16
71396;DHT22;59888;55.814;37.132;2023-04-03T14:49:26;15.45;46.93
71396;DHT22;59888;55.814;37.132;2023-04-03T14:51:53;15.40;46.90
71396;DHT22;59888;55.814;37.132;2023-04-03T14:54:21;15.32;46.67
71396;DHT22;59888;55.814;37.132;2023-04-03T14:56:51;15.21;46.85
71396;DHT22;59888;55.814;37.132;2023-04-03T14:59:18;15.21;46.78
71396;DHT22;59888;55.814;37.132;2023-04-03T15:01:49;15.21;46.72
71396;DHT22;59888;55.814;37.132;2023-04-03T15:04:17;15.21;46.64
71396;DHT22;59888;55.814;37.132;2023-04-03T15:06:44;15.18;46.70
71396;DHT22;59888;55.814;37.132;2023-04-03T15:09:25;15.14;46.54
71396;DHT22;59888;55.814;37.132;2023-04-03T15:11:54;15.08;46.66
71396;DHT22;59888;55.814;37.132;2023-04-03T15:14:20;14.98;46.72
71396;DHT22;59888;55.814;37.132;2023-04-03T15:16:47;14.91;46.83
71396;DHT22;59888;55.814;37.132;2023-04-03T15:19:13;14.96;46.86
71396;DHT22;59888;55.814;37.132;2023-04-03T15:21:39;14.97;46.82
71396;DHT22;59888;55.814;37.132;2023-04-03T15:24:05;14.94;46.91
71396;DHT22;59888;55.814;37.132;2023-04-03T15:26:32;14.95;46.92
71396;DHT22;59888;55.814;37.132;2023-04-03T15:28:58;14.87;47.01
71396;DHT22;59888;55.814;37.132;2023-04-03T15:31:24;14.80;47.16
71396;DHT22;59888;55.814;37.132;2023-04-03T15:33:50;14.79;47.24
71396;DHT22;59888;55.814;37.132;2023-04-03T15:36:16;14.75;47.22
71396;DHT22;59888;55.814;37.132;2023-04-03T15:38:42;14.69;47.35
71396;DHT22;59888;55.814;37.132;2023-04-03T15:41:08;14.66;47.43
71396;DHT22;59888;55.814;37.132;2023-04-03T15:43:33;14.60;47.52
71396;DHT22;59888;55.814;37.132;2023-04-03T15:46:01;14.60;47.62
71396;DHT22;59888;55.814;37.132;2023-04-03T15:48:28;14.55;47.84
71396;DHT22;59888;55.814;37.132;2023-04-03T15:50:54;14.50;48.18
71396;DHT22;59888;55.814;37.132;2023-04-03T15:53:20;14.44;48.60
71396;DHT22;59888;55.814;37.132;2023-04-03T15:55:46;14.37;49.07
71396;DHT22;59888;55.814;37.132;2023-04-03T15:58:12;14.28;49.43
71396;DHT22;59888;55.814;37.132;2023-04-03T16:00:38;14.23;49.64
71396;DHT22;59888;55.814;37.132;2023-04-03T16:03:19;14.18;50.05
71396;DHT22;59888;55.814;37.132;2023-04-03T16:05:46;14.12;50.24
71396;DHT22;59888;55.814;37.132;2023-04-03T16:08:12;14.08;50.68
71396;DHT22;59888;55.814;37.132;2023-04-03T16:10:38;13.99;50.67
71396;DHT22;59888;55.814;37.132;2023-04-03T16:13:06;13.89;50.90
71396;DHT22;59888;55.814;37.132;2023-04-03T16:15:33;13.85;50.93
71396;DHT22;59888;55.814;37.132;2023-04-03T16:18:00;13.79;51.20
71396;DHT22;59888;55.814;37.132;2023-04-03T16:20:26;13.73;51.42
71396;DHT22;59888;55.814;37.132;2023-04-03T16:22:52;13.66;51.78
71396;DHT22;59888;55.814;37.132;2023-04-03T16:25:19;13.62;52.14
71396;DHT22;59888;55.814;37.132;2023-04-03T16:27:45;13.55;52.39
71396;DHT22;59888;55.814;37.132;2023-04-03T16:30:12;13.49;52.20
71396;DHT22;59888;55.814;37.132;2023-04-03T16:32:38;13.41;52.56
71396;DHT22;59888;55.814;37.132;2023-04-03T16:35:05;13.30;53.01
71396;DHT22;59888;55.814;37.132;2023-04-03T16:37:31;13.21;53.39
71396;DHT22;59888;55.814;37.132;2023-04-03T16:39:57;13.16;53.83
71396;DHT22;59888;55.814;37.132;2023-04-03T16:42:24;13.08;54.10
71396;DHT22;59888;55.814;37.132;2023-04-03T16:44:50;13.04;54.13
71396;DHT22;59888;55.814;37.132;2023-04-03T16:47:16;13.01;54.65
71396;DHT22;59888;55.814;37.132;2023-04-03T16:49:45;13.00;54.39
71396;DHT22;59888;55.814;37.132;2023-04-03T16:52:11;12.95;55.07
71396;DHT22;59888;55.814;37.132;2023-04-03T16:54:37;12.88;55.44
71396;DHT22;59888;55.814;37.132;2023-04-03T16:57:03;12.85;55.34
71396;DHT22;59888;55.814;37.132;2023-04-03T16:59:29;12.78;55.50
71396;DHT22;59888;55.814;37.132;2023-04-03T17:01:55;12.75;55.71
71396;DHT22;59888;55.814;37.132;2023-04-03T17:04:21;12.73;55.93
71396;DHT22;59888;55.814;37.132;2023-04-03T17:06:47;12.70;56.55
71396;DHT22;59888;55.814;37.132;2023-04-03T17:09:13;12.63;56.81
71396;DHT22;59888;55.814;37.132;2023-04-03T17:11:40;12.60;57.10
71396;DHT22;59888;55.814;37.132;2023-04-03T17:14:06;12.61;56.93
71396;DHT22;59888;55.814;37.132;2023-04-03T17:16:34;12.60;57.02
71396;DHT22;59888;55.814;37.132;2023-04-03T17:19:00;12.58;56.98
71396;DHT22;59888;55.814;37.132;2023-04-03T17:21:27;12.57;57.24
71396;DHT22;59888;55.814;37.132;2023-04-03T17:24:01;12.55;57.67
71396;DHT22;59888;55.814;37.132;2023-04-03T17:26:28;12.52;57.51
71396;DHT22;59888;55.814;37.132;2023-04-03T17:28:54;12.49;57.34